Aérodrome :
LOGIN :

S'inscrire | Disclaimer

   EN    FR    IT 

 










Légende :    VFR   VFR Marginal   IFR   IFR Intensif   IFR Très Intensif
Visi : 
Plafond : 
>= 8 km
>= 3000ft
5 à 8 km
1000 à 3000 ft
1500m à 5 km
500 à 1000 ft
800 à 1500m
200 à 500 ft
< 800m
< 200 ft
Symboles :   Orages  Brouillard  Fortes neiges  Fortes précipitations  Vent > 20 kt
SIGMETs :   Divers  Orages  Givrage  Turbulence  Onde Orograph.  Cendres Volcan.







- Altitude de l'aérodrome : 464 ft
- Code IATA : EVX
- Voir les cartes d'approche


LFOE - Evreux

DERNIER METAR :
  • 200930Z AUTO 01003KT 2300 BR OVC003 02/02 Q1013 TEMPO 4000 -DZ BKN005

METARs EXPIRÉS :
  • 200900Z AUTO 36003KT 0550 0500 R22/0900U FG VV/// 02/02 Q1013 TEMPO 4000 -DZ BKN005
  • 200830Z AUTO 01003KT 0650 0600 R22/0700D FG VV/// 02/02 Q1012 TEMPO 4000 -DZ BKN005
  • 200800Z AUTO 02003KT 0450 R22/0600N FG VV/// 02/01 Q1012 BECMG 8000 NSW BKN008
  • 200730Z AUTO 02004KT 0650 R22/0800N FG VV/// 02/01 Q1011 BECMG 8000 NSW BKN008
  • 200700Z AUTO 02004KT 0500 0450 R22/0600N FG VV/// 02/01 Q1011 BECMG 8000 NSW BKN008
  • 200630Z AUTO 01004KT 340V040 0300 0250 R22/0400N FG VV/// 02/02 Q1011 BECMG 8000 NSW BKN008

TAF TAF LFOE
Valide du 20 à 09h jusqu'au 21 à 09h UTC


200800Z 2009/2109 02005KT 0800 FG BKN003 BKN012
BECMG 2009/2010 8000 NSW BKN007
PROB40
TEMPO 2009/2017 4000 -DZ BKN005
PROB40
TEMPO 2023/2108 0800 FZFG VV///
Pas de NOTAMs connus pour ce terrain.



MET'MAP, la Météo Aéronautique d'un coup d'oeil ! - Copyright ORBIFLY Décembre 2007 - Disclaimer

ORBIFLY MET'MAP TEAM :

Programmation & Développement : Alexandra Zaïnal
Conception & Développement : Baudouin d'Aumeries
Co-Programmation & Développement : Marc-Olivier Méhu
Soutien technique & logistique : Manuel Goepfert

Contact : metmap@orbifly.com




SOURCES & CREDITS :

   NOAA